Airfield :
LOGIN :

Register | Disclaimer

   EN    FR    IT 

 










Legend :    VFR   Marginal VFR   IFR   Intensive IFR   Very Intensive IFR
Visi :
Ceiling :
>= 8 km
>= 3000ft
5 to 8 km
1000 to 3000 ft
1500m to 5 km
500 to 1000 ft
800 to 1500m
200 to 500 ft
< 800m
< 200 ft
Symbols :   Thunderstorms  Fog  Heavy snow  Heavy precipitations  Wind > 20 kt
SIGMETs :     Misc.  Thunderstorms  Icing  Turbulence  Mountain Waves  Volcanic Ashes







- Airport Elevation : 20 ft


EBFN - Koksijde

CURRENT METAR :
  • 222325Z AUTO 23006KT 9999 BKN042/// 16/14 Q1014 BLU

EXPIRED METARs :
  • 222255Z AUTO 23005KT 9999 FEW042/// 16/14 Q1014 BLU
  • 222225Z AUTO 23005KT 9999 BKN042/// BKN190/// 16/14 Q1014 BLU
  • 222155Z AUTO 23006KT 9999 OVC190/// 17/14 Q1014 BLU
  • 222125Z AUTO 23006KT 9999 OVC200/// 17/15 Q1014 BLU
  • 222055Z AUTO 24007KT 9999 BKN210/// 17/15 Q1014 BLU

TAF TAF EBFN
Valid from the 22 at 19:00 until the 23 at 07:00 UTC


221541Z 2219/2307 26018G28KT 9999 FEW030 SCT300
BECMG 2221/2223 30008KT SCT030 BKN250
PROB40
TEMPO 2221/2223 BKN025 BKN170
BECMG 2301/2303 24006KT
PROB30
TEMPO 2303/2307 BKN018
No reported NOTAMs for that airfield.



MET'MAP, your aeronautical weather chart ! - Copyright ORBIFLY December 2007 - Disclaimer

ORBIFLY MET'MAP TEAM :

Programming & Development : Alexandra Zaïnal
Concept & Development : Baudouin d'Aumeries
Co-Development & Prog : Marc-Olivier Méhu
Technical & hardware support : Manuel Goepfert

Contact : metmap@orbifly.com




SOURCES & CREDITS :

   NOAA